createdAt,value
2022-10-17T00:02:17.628Z,13.34
2022-10-17T00:05:03.494Z,13.40
2022-10-17T00:07:49.193Z,13.49
2022-10-17T00:10:34.913Z,13.23
2022-10-17T00:13:20.113Z,13.26
2022-10-17T00:16:06.501Z,13.35
2022-10-17T00:18:52.250Z,13.35
2022-10-17T00:21:37.842Z,13.47
2022-10-17T00:24:23.009Z,13.32
2022-10-17T00:27:08.894Z,13.40
2022-10-17T00:29:54.281Z,13.34
2022-10-17T00:32:40.315Z,13.28
2022-10-17T00:35:25.933Z,13.32
2022-10-17T00:38:11.380Z,13.53
2022-10-17T00:40:57.079Z,13.57
2022-10-17T00:44:03.159Z,13.53
2022-10-17T00:46:48.707Z,13.64
2022-10-17T00:49:36.349Z,13.75
2022-10-17T00:52:26.461Z,13.74
2022-10-17T00:55:23.067Z,13.69
2022-10-17T00:58:08.657Z,13.70
2022-10-17T01:00:53.897Z,13.71
2022-10-17T01:03:39.312Z,13.76
2022-10-17T01:06:24.612Z,13.80
2022-10-17T01:09:10.173Z,13.81
2022-10-17T01:12:26.760Z,13.79
2022-10-17T01:15:35.383Z,13.83
2022-10-17T01:18:38.541Z,13.83
2022-10-17T01:21:39.028Z,13.87
2022-10-17T01:24:41.589Z,13.82
2022-10-17T01:27:43.207Z,13.90
2022-10-17T01:30:46.640Z,13.95
2022-10-17T01:34:06.078Z,13.93
2022-10-17T01:37:00.424Z,13.99
2022-10-17T01:39:51.905Z,13.99
2022-10-17T01:42:45.107Z,13.91
2022-10-17T01:45:40.630Z,13.86
2022-10-17T01:48:34.253Z,13.72
2022-10-17T01:51:27.504Z,13.84
2022-10-17T01:54:26.192Z,13.81
2022-10-17T01:57:20.258Z,13.82
2022-10-17T02:00:11.100Z,13.74
2022-10-17T02:03:04.595Z,13.69
2022-10-17T02:05:50.135Z,13.65
2022-10-17T02:08:44.902Z,13.61
2022-10-17T02:11:30.375Z,13.61
2022-10-17T02:14:32.752Z,13.70
2022-10-17T02:17:49.080Z,13.95
2022-10-17T02:20:52.930Z,14.01
2022-10-17T02:23:53.591Z,14.19
2022-10-17T02:27:06.691Z,14.13
2022-10-17T02:29:58.931Z,14.17
2022-10-17T02:32:55.538Z,14.30
2022-10-17T02:35:47.069Z,14.33
2022-10-17T02:38:34.571Z,14.44
2022-10-17T02:41:23.702Z,14.44
2022-10-17T02:44:10.116Z,14.53
2022-10-17T02:47:03.406Z,14.48
2022-10-17T02:49:54.781Z,14.47
2022-10-17T02:52:51.002Z,14.44
2022-10-17T02:55:43.781Z,14.52
2022-10-17T02:58:33.434Z,14.58
2022-10-17T03:01:19.896Z,14.51
2022-10-17T03:04:10.945Z,14.52
2022-10-17T03:06:56.546Z,14.58
2022-10-17T03:09:42.285Z,14.55
2022-10-17T03:12:28.097Z,14.47
2022-10-17T03:15:14.164Z,14.53
2022-10-17T03:17:59.704Z,14.52
2022-10-17T03:20:44.990Z,14.56
2022-10-17T03:23:30.653Z,14.69
2022-10-17T03:26:16.399Z,14.79
2022-10-17T03:29:02.089Z,14.59
2022-10-17T03:31:47.943Z,14.65
2022-10-17T03:34:33.453Z,14.74
2022-10-17T03:37:18.953Z,14.59
2022-10-17T03:40:04.705Z,14.48
2022-10-17T03:42:50.889Z,14.29
2022-10-17T03:45:36.853Z,14.29
2022-10-17T03:48:22.539Z,14.19
2022-10-17T03:51:09.788Z,13.98
2022-10-17T03:53:55.096Z,13.89
2022-10-17T03:56:40.421Z,13.87
2022-10-17T03:59:26.147Z,13.67
2022-10-17T04:02:11.683Z,13.68
2022-10-17T04:04:57.015Z,13.45
2022-10-17T04:07:42.469Z,13.55
2022-10-17T04:10:27.798Z,13.55
2022-10-17T04:13:13.993Z,13.26
2022-10-17T04:16:01.483Z,13.30
2022-10-17T04:18:47.114Z,13.29
2022-10-17T04:21:32.720Z,13.28
2022-10-17T04:24:18.111Z,13.37
2022-10-17T04:27:03.796Z,13.36
2022-10-17T04:29:49.500Z,13.31
2022-10-17T04:32:38.910Z,13.26
2022-10-17T04:35:24.323Z,13.30
2022-10-17T04:38:09.921Z,13.34
2022-10-17T04:41:02.977Z,13.32
2022-10-17T04:43:51.022Z,13.31
2022-10-17T04:46:37.259Z,13.19
2022-10-17T04:49:22.860Z,13.17
2022-10-17T04:52:08.128Z,13.14
2022-10-17T04:54:53.979Z,13.16
2022-10-17T04:57:39.588Z,13.17
2022-10-17T05:00:24.870Z,13.05
2022-10-17T05:03:10.639Z,13.02
2022-10-17T05:05:55.817Z,12.92
2022-10-17T05:08:41.529Z,12.99
2022-10-17T05:11:29.210Z,13.05
2022-10-17T05:14:15.352Z,13.14
2022-10-17T05:17:01.036Z,13.16
2022-10-17T05:19:46.552Z,13.12
2022-10-17T05:22:32.183Z,12.99
2022-10-17T05:25:17.954Z,12.99
2022-10-17T05:28:03.312Z,12.94
2022-10-17T05:30:49.341Z,12.80
2022-10-17T05:33:34.998Z,12.88
2022-10-17T05:36:20.936Z,12.76
2022-10-17T05:39:06.527Z,12.90
2022-10-17T05:41:52.638Z,12.89
2022-10-17T05:44:39.570Z,12.85
2022-10-17T05:47:24.896Z,12.72
2022-10-17T05:50:10.215Z,12.66
2022-10-17T05:52:55.775Z,12.66
2022-10-17T05:55:41.295Z,12.69
2022-10-17T06:01:33.706Z,12.55
2022-10-17T06:04:19.647Z,12.73
2022-10-17T06:07:05.639Z,12.75
2022-10-17T06:09:51.237Z,12.91
2022-10-17T06:12:36.603Z,12.89
2022-10-17T06:15:21.902Z,12.84
2022-10-17T06:18:07.684Z,13.01
2022-10-17T06:20:53.614Z,13.04
2022-10-17T06:23:39.082Z,13.16
2022-10-17T06:26:24.531Z,13.30
2022-10-17T06:29:10.658Z,13.35
2022-10-17T06:31:55.984Z,13.23
2022-10-17T06:34:41.417Z,13.37
2022-10-17T06:37:35.329Z,13.46
2022-10-17T06:40:22.410Z,13.59
2022-10-17T06:43:07.826Z,13.87
2022-10-17T06:45:53.101Z,13.94
2022-10-17T06:48:38.594Z,14.19
2022-10-17T06:51:23.907Z,14.88
2022-10-17T06:54:09.386Z,15.48
2022-10-17T06:56:56.105Z,16.18
2022-10-17T06:59:41.838Z,16.66
2022-10-17T07:02:27.884Z,17.06
2022-10-17T07:05:13.483Z,17.56
2022-10-17T07:07:58.890Z,18.11
2022-10-17T07:10:44.441Z,18.36
2022-10-17T07:13:29.860Z,18.24
2022-10-17T07:16:16.176Z,18.54
2022-10-17T07:19:01.969Z,19.29
2022-10-17T07:21:48.928Z,19.65
2022-10-17T07:24:34.337Z,19.68
2022-10-17T07:27:19.567Z,20.32
2022-10-17T07:30:05.809Z,20.52
2022-10-17T07:32:54.504Z,21.07
2022-10-17T07:35:42.611Z,21.92
2022-10-17T07:38:28.658Z,22.64
2022-10-17T07:41:17.885Z,22.83
2022-10-17T07:44:06.299Z,22.95
2022-10-17T07:46:51.748Z,22.99
2022-10-17T07:49:42.421Z,22.90
2022-10-17T07:52:28.423Z,23.10
2022-10-17T07:55:14.071Z,23.81
2022-10-17T07:58:00.480Z,24.16
2022-10-17T08:00:48.438Z,25.01
2022-10-17T08:03:34.737Z,24.92
2022-10-17T08:06:20.148Z,22.93
2022-10-17T08:09:05.827Z,21.42
2022-10-17T08:11:51.073Z,20.79
2022-10-17T08:14:36.659Z,19.82
2022-10-17T08:17:21.960Z,20.27
2022-10-17T08:20:07.872Z,20.14
2022-10-17T08:22:55.040Z,19.92
2022-10-17T08:25:40.379Z,20.62
2022-10-17T08:28:25.938Z,20.88
2022-10-17T08:31:21.291Z,21.30
2022-10-17T08:34:07.234Z,21.20
2022-10-17T08:36:52.788Z,21.23
2022-10-17T08:39:38.372Z,21.24
2022-10-17T08:42:42.076Z,20.81
2022-10-17T08:45:38.513Z,21.26
2022-10-17T08:48:26.555Z,21.82
2022-10-17T08:51:35.592Z,22.11
2022-10-17T08:54:46.149Z,22.72
2022-10-17T08:57:32.199Z,23.19
2022-10-17T09:00:20.922Z,23.11
2022-10-17T09:03:15.213Z,23.36
2022-10-17T09:06:12.832Z,23.66
2022-10-17T09:09:06.179Z,26.81
2022-10-17T09:12:02.815Z,28.06
2022-10-17T09:15:16.385Z,27.64
2022-10-17T09:18:22.412Z,29.33
2022-10-17T09:21:19.376Z,29.23
2022-10-17T09:24:15.901Z,29.93
2022-10-17T09:27:02.897Z,28.80
2022-10-17T09:29:50.487Z,29.83
2022-10-17T09:32:37.548Z,29.94
2022-10-17T09:35:25.401Z,29.92
2022-10-17T09:38:18.038Z,30.09
2022-10-17T09:41:15.741Z,30.82
2022-10-17T09:44:21.890Z,30.80
2022-10-17T09:47:31.179Z,30.68
2022-10-17T09:50:27.445Z,30.43
2022-10-17T09:53:20.625Z,28.68
2022-10-17T09:56:13.842Z,28.12
2022-10-17T09:58:59.736Z,27.49
2022-10-17T10:01:45.359Z,26.43
2022-10-17T10:04:41.203Z,26.48
2022-10-17T10:07:36.513Z,26.11
2022-10-17T10:10:28.143Z,25.58
2022-10-17T10:13:13.498Z,26.13
2022-10-17T10:16:16.684Z,28.14
2022-10-17T10:19:19.408Z,29.70
2022-10-17T10:22:16.363Z,29.66
2022-10-17T10:25:16.104Z,28.77
2022-10-17T10:28:01.865Z,28.96
2022-10-17T10:30:49.488Z,29.06
2022-10-17T10:33:41.773Z,28.51
2022-10-17T10:36:45.471Z,27.54
2022-10-17T10:39:45.955Z,27.12
2022-10-17T10:42:37.644Z,27.33
2022-10-17T10:45:47.487Z,27.38
2022-10-17T10:48:37.344Z,27.09
2022-10-17T10:51:32.346Z,26.84
2022-10-17T10:54:26.307Z,26.01
2022-10-17T10:57:20.829Z,25.87
2022-10-17T11:00:15.409Z,25.74
2022-10-17T11:03:15.662Z,25.45
2022-10-17T11:06:06.507Z,25.01
2022-10-17T11:09:28.845Z,24.99
2022-10-17T11:12:35.265Z,24.99
2022-10-17T11:15:42.960Z,24.93
2022-10-17T11:18:42.953Z,24.97
2022-10-17T11:24:49.117Z,25.36
2022-10-17T11:27:34.509Z,25.49
2022-10-17T11:30:23.333Z,25.88
2022-10-17T11:33:16.610Z,25.84
2022-10-17T11:36:05.672Z,26.52
2022-10-17T11:38:55.644Z,27.86
2022-10-17T11:41:58.952Z,29.02
2022-10-17T11:44:52.324Z,28.33
2022-10-17T11:47:54.435Z,29.94
2022-10-17T11:54:06.521Z,28.20
2022-10-17T11:57:22.046Z,27.01
2022-10-17T12:00:26.980Z,26.71
2022-10-17T12:03:54.062Z,26.83
2022-10-17T12:07:22.146Z,26.68
2022-10-17T12:10:28.724Z,25.72
2022-10-17T12:13:29.147Z,25.49
2022-10-17T12:16:38.045Z,25.82
2022-10-17T12:19:26.410Z,25.43
2022-10-17T12:22:21.391Z,25.85
2022-10-17T12:25:19.196Z,25.57
2022-10-17T12:28:07.352Z,24.95
2022-10-17T12:31:29.570Z,24.61
2022-10-17T12:34:22.338Z,24.58
2022-10-17T12:37:11.329Z,24.22
2022-10-17T12:39:57.150Z,24.35
2022-10-17T12:42:50.618Z,24.23
2022-10-17T12:45:54.059Z,24.01
2022-10-17T12:48:39.517Z,23.98
2022-10-17T12:51:40.509Z,23.69
2022-10-17T12:54:26.082Z,23.70
2022-10-17T12:57:33.218Z,23.90
2022-10-17T13:00:34.811Z,23.69
2022-10-17T13:03:41.148Z,24.03
2022-10-17T13:06:29.989Z,23.86
2022-10-17T13:09:51.848Z,23.56
2022-10-17T13:12:41.175Z,23.72
2022-10-17T13:15:27.855Z,23.84
2022-10-17T13:18:20.185Z,23.78
2022-10-17T13:21:15.231Z,23.63
2022-10-17T13:24:01.065Z,23.70
2022-10-17T13:26:46.441Z,23.81
2022-10-17T13:29:32.951Z,23.81
2022-10-17T13:32:18.463Z,23.61
2022-10-17T13:35:13.152Z,23.65
2022-10-17T13:38:00.697Z,23.55
2022-10-17T13:40:50.463Z,23.23
2022-10-17T13:43:36.488Z,22.82
2022-10-17T13:46:39.161Z,22.82
2022-10-17T13:49:34.205Z,22.47
2022-10-17T13:52:22.001Z,22.63
2022-10-17T13:55:17.476Z,22.53
2022-10-17T13:58:16.436Z,22.46
2022-10-17T14:01:02.261Z,22.42
2022-10-17T14:03:51.794Z,22.54
2022-10-17T14:06:47.984Z,22.33
2022-10-17T14:09:36.987Z,22.21
2022-10-17T14:12:22.803Z,21.94
2022-10-17T14:15:14.330Z,21.91
2022-10-17T14:18:07.926Z,22.11
2022-10-17T14:24:32.910Z,21.93
2022-10-17T14:27:41.689Z,21.92
2022-10-17T14:30:51.810Z,21.76
2022-10-17T14:33:33.866Z,21.47
2022-10-17T14:36:30.911Z,21.35
2022-10-17T14:39:22.489Z,21.47
2022-10-17T14:42:18.586Z,21.40
2022-10-17T14:45:07.961Z,21.49
2022-10-17T14:47:56.327Z,21.39
2022-10-17T14:50:43.472Z,21.44
2022-10-17T14:53:30.159Z,21.34
2022-10-17T14:56:24.705Z,21.47
2022-10-17T14:59:13.766Z,21.30
2022-10-17T15:02:03.755Z,21.28
2022-10-17T15:04:49.108Z,21.36
2022-10-17T15:07:34.857Z,21.25
2022-10-17T15:10:34.753Z,21.35
2022-10-17T15:13:29.508Z,21.31
2022-10-17T15:16:35.667Z,21.38
2022-10-17T15:19:21.026Z,21.10
2022-10-17T15:22:06.427Z,21.09
2022-10-17T15:24:51.811Z,21.05
2022-10-17T15:27:37.512Z,21.11
2022-10-17T15:30:28.427Z,20.98
2022-10-17T15:33:13.655Z,20.81
2022-10-17T15:35:59.325Z,20.84
2022-10-17T15:38:44.751Z,20.69
2022-10-17T15:41:32.315Z,20.72
2022-10-17T15:44:17.991Z,20.67
2022-10-17T15:47:03.773Z,20.56
2022-10-17T15:49:49.353Z,20.41
2022-10-17T15:52:35.428Z,20.42
2022-10-17T15:55:21.035Z,20.12
2022-10-17T15:58:06.544Z,20.07
2022-10-17T16:00:52.171Z,20.08
2022-10-17T16:03:37.589Z,20.00
2022-10-17T16:06:23.947Z,19.92
2022-10-17T16:09:09.641Z,19.80
2022-10-17T16:11:55.738Z,19.63
2022-10-17T16:14:41.172Z,19.73
2022-10-17T16:17:26.620Z,19.61
2022-10-17T16:20:13.230Z,19.51
2022-10-17T16:23:02.216Z,19.44
2022-10-17T16:25:47.851Z,19.54
2022-10-17T16:28:34.061Z,19.27
2022-10-17T16:31:26.077Z,19.35
2022-10-17T16:34:14.498Z,19.44
2022-10-17T16:37:00.129Z,19.35
2022-10-17T16:39:49.067Z,19.45
2022-10-17T16:42:34.811Z,19.40
2022-10-17T16:45:22.680Z,19.42
2022-10-17T16:48:09.236Z,19.38
2022-10-17T16:50:54.838Z,19.50
2022-10-17T16:53:43.722Z,19.28
2022-10-17T16:56:32.773Z,19.22
2022-10-17T16:59:18.103Z,19.15
2022-10-17T17:02:03.859Z,19.19
2022-10-17T17:04:49.268Z,19.12
2022-10-17T17:07:34.861Z,19.07
2022-10-17T17:10:20.555Z,18.91
2022-10-17T17:13:05.934Z,18.88
2022-10-17T17:15:53.646Z,18.92
2022-10-17T17:18:39.386Z,18.86
2022-10-17T17:21:26.972Z,18.88
2022-10-17T17:24:12.512Z,18.90
2022-10-17T17:26:58.095Z,18.90
2022-10-17T17:29:43.601Z,18.86
2022-10-17T17:32:28.832Z,18.69
2022-10-17T17:35:14.632Z,18.74
2022-10-17T17:38:02.864Z,18.71
2022-10-17T17:40:50.694Z,18.73
2022-10-17T17:43:36.780Z,18.77
2022-10-17T17:46:23.941Z,18.81
2022-10-17T17:49:11.247Z,18.69
2022-10-17T17:51:56.522Z,18.73
2022-10-17T17:54:42.349Z,18.75
2022-10-17T17:57:29.383Z,18.92
2022-10-17T18:00:14.841Z,18.83
2022-10-17T18:03:00.605Z,18.95
2022-10-17T18:05:45.988Z,18.95
2022-10-17T18:08:31.597Z,18.86
2022-10-17T18:11:19.705Z,18.94
2022-10-17T18:14:11.203Z,18.83
2022-10-17T18:16:56.692Z,18.93
2022-10-17T18:19:42.339Z,18.89
2022-10-17T18:22:28.122Z,18.87
2022-10-17T18:25:14.071Z,18.83
2022-10-17T18:27:59.352Z,18.82
2022-10-17T18:30:44.877Z,18.91
2022-10-17T18:33:30.273Z,18.76
2022-10-17T18:36:15.794Z,18.77
2022-10-17T18:39:02.032Z,18.71
2022-10-17T18:41:47.608Z,18.67
2022-10-17T18:44:33.088Z,18.69
2022-10-17T18:47:18.740Z,18.74
2022-10-17T18:50:04.225Z,18.80
2022-10-17T18:52:50.410Z,18.77
2022-10-17T18:55:39.377Z,18.75
2022-10-17T18:58:24.737Z,18.71
2022-10-17T19:01:15.471Z,18.76
2022-10-17T19:04:01.485Z,18.73
2022-10-17T19:06:47.188Z,18.70
2022-10-17T19:09:32.921Z,18.70
2022-10-17T19:12:18.635Z,18.76
2022-10-17T19:15:04.081Z,18.75
2022-10-17T19:17:49.656Z,18.75
2022-10-17T19:20:35.117Z,18.72
2022-10-17T19:23:20.872Z,18.75
2022-10-17T19:26:11.529Z,18.68
2022-10-17T19:28:56.994Z,18.71
2022-10-17T19:31:43.584Z,18.61
2022-10-17T19:34:29.009Z,18.60
2022-10-17T19:37:14.312Z,18.60
2022-10-17T19:39:59.691Z,18.61
2022-10-17T19:42:44.979Z,18.60
2022-10-17T19:45:30.649Z,18.65
2022-10-17T19:48:16.092Z,18.69
2022-10-17T19:51:02.128Z,18.58
2022-10-17T19:53:47.606Z,18.47
2022-10-17T19:56:37.542Z,18.51
2022-10-17T19:59:26.152Z,18.32
2022-10-17T20:02:13.426Z,18.24
2022-10-17T20:05:13.971Z,18.28
2022-10-17T20:08:03.511Z,18.30
2022-10-17T20:10:48.955Z,18.29
2022-10-17T20:13:36.396Z,18.27
2022-10-17T20:16:24.623Z,18.16
2022-10-17T20:19:12.906Z,18.07
2022-10-17T20:21:58.252Z,17.97
2022-10-17T20:24:43.676Z,18.01
2022-10-17T20:27:28.960Z,18.07
2022-10-17T20:30:14.445Z,17.90
2022-10-17T20:32:59.800Z,17.80
2022-10-17T20:38:30.450Z,17.94
2022-10-17T20:41:15.825Z,17.94
2022-10-17T20:44:01.426Z,17.85
2022-10-17T20:47:01.088Z,17.85
2022-10-17T20:49:47.743Z,17.81
2022-10-17T20:52:32.993Z,17.76
2022-10-17T20:55:18.526Z,17.78
2022-10-17T20:58:04.104Z,17.86
2022-10-17T21:00:49.388Z,17.92
2022-10-17T21:03:37.894Z,17.77
2022-10-17T21:06:25.380Z,17.92
2022-10-17T21:09:10.641Z,17.88
2022-10-17T21:11:56.691Z,17.78
2022-10-17T21:14:42.428Z,17.63
2022-10-17T21:17:28.012Z,17.77
2022-10-17T21:20:13.660Z,17.64
2022-10-17T21:23:00.517Z,17.56
2022-10-17T21:25:46.272Z,17.54
2022-10-17T21:28:32.294Z,17.53
2022-10-17T21:31:23.468Z,17.55
2022-10-17T21:34:13.813Z,17.41
2022-10-17T21:36:59.287Z,17.40
2022-10-17T21:39:45.186Z,17.39
2022-10-17T21:42:30.919Z,17.35
2022-10-17T21:45:25.242Z,17.31
2022-10-17T21:48:13.120Z,17.29
2022-10-17T21:51:01.053Z,17.23
2022-10-17T21:53:46.968Z,17.21
2022-10-17T21:56:34.634Z,17.14
2022-10-17T21:59:20.189Z,16.99
2022-10-17T22:02:05.481Z,16.97
2022-10-17T22:04:51.140Z,16.97
2022-10-17T22:07:36.401Z,16.94
2022-10-17T22:10:22.057Z,16.88
2022-10-17T22:13:07.577Z,16.86
2022-10-17T22:15:52.869Z,16.78
2022-10-17T22:18:39.096Z,16.83
2022-10-17T22:21:25.116Z,16.65
2022-10-17T22:24:12.515Z,16.74
2022-10-17T22:26:58.073Z,16.69
2022-10-17T22:29:43.407Z,16.73
2022-10-17T22:32:29.107Z,16.63
2022-10-17T22:35:14.765Z,16.57
2022-10-17T22:38:00.008Z,16.64
2022-10-17T22:40:46.153Z,16.74
2022-10-17T22:43:32.365Z,16.55
2022-10-17T22:46:17.578Z,16.46
2022-10-17T22:49:03.353Z,16.55
2022-10-17T22:51:48.832Z,16.55
2022-10-17T22:54:34.291Z,16.63
2022-10-17T22:57:19.712Z,16.63
2022-10-17T23:00:07.350Z,16.68
2022-10-17T23:02:55.678Z,16.71
2022-10-17T23:05:41.232Z,16.73
2022-10-17T23:08:28.078Z,16.84
2022-10-17T23:11:13.568Z,16.83
2022-10-17T23:13:58.985Z,16.72
2022-10-17T23:16:44.582Z,16.78
2022-10-17T23:19:30.754Z,16.73
2022-10-17T23:22:16.039Z,16.73
2022-10-17T23:25:01.505Z,16.77
2022-10-17T23:27:47.154Z,16.77
2022-10-17T23:30:32.566Z,16.76
2022-10-17T23:33:17.922Z,16.81
2022-10-17T23:36:05.382Z,16.79
2022-10-17T23:38:52.752Z,16.77
2022-10-17T23:41:40.836Z,16.88
2022-10-17T23:44:26.175Z,16.85
2022-10-17T23:47:11.425Z,16.84
2022-10-17T23:49:57.567Z,16.92
2022-10-17T23:52:43.406Z,16.83
2022-10-17T23:55:29.194Z,16.74
2022-10-17T23:58:14.761Z,16.57
